METAR Data
IDs: Format: Raw Decoded Include TAF

Data at: 1510 UTC 18 Aug 2019

Region: TOP
KATL 181452Z 32005KT 10SM FEW030 FEW250 29/21 A3008 RMK AO2 SLP171 T02940211 51013 $

KBOS 181454Z 11008KT 10SM FEW022 SCT220 BKN250 26/21 A3002 RMK AO2 SLP164 T02560211 50001

KBWI 181454Z 00000KT 10SM FEW035 FEW150 SCT250 32/23 A3001 RMK AO2 SLP159 T03220233 55001

KCLE 181451Z 20009KT 10SM FEW100 SCT200 27/19 A2998 RMK AO2 SLP145 T02670194 55001

KCLT 181452Z 25004KT 10SM FEW025 FEW100 29/22 A3007 RMK AO2 SLP173 T02890217 53010

KCVG 181452Z 21005KT 10SM BKN150 30/21 A3000 RMK AO2 SLP146 T03000211 51007

KDCA 181452Z 16005KT 10SM SCT250 29/23 A3002 RMK AO2 SLP164 T02940228 53002

KDEN 181453Z 11005KT 10SM OVC009 15/12 A3011 RMK AO2 SLP128 T01500122 51017

KDFW 181453Z 20016KT 10SM FEW020 FEW300 30/22 A2988 RMK AO2 SLP108 T03000217 51015

KDTW 181453Z 20010KT 10SM FEW035 FEW180 SCT250 27/20 A2990 RMK AO2 SLP121 T02670200 58002

KEWR 181451Z 17004KT 10SM SCT012 BKN020 BKN120 BKN250 28/24 A3002 RMK AO2 SLP165 T02830239 55002

KFLL 181453Z 14006KT 10SM SCT032 SCT250 31/23 A3009 RMK AO2 SLP188 T03110228 53007 $

KIAD 181452Z 00000KT 10SM SCT250 31/22 A3002 RMK AO2 SLP161 T03060217 55000

KIAH 181453Z 19010KT 10SM FEW020 SCT034 SCT050 BKN250 31/26 A2993 RMK AO2 RAE1356 SLP133 P0000 60005 T03110256 51010 $

KJFK 181451Z 22006KT 10SM SCT010 SCT130 BKN250 28/26 A3003 RMK AO2 SLP170 T02780256 55001

KLAS 181456Z 00000KT 10SM SCT250 28/M03 A2986 RMK AO2 SLP079 T02831028 53019 $

KLAX 181453Z VRB04KT 10SM OVC018 21/16 A2991 RMK AO2 SLP128 T02060156 53013 $

KLGA 181451Z 06005KT 8SM SCT015 BKN025 BKN090 BKN130 BKN250 28/23 A3001 RMK AO2 SLP163 T02830233 55003

KMCO 181453Z 18006KT 10SM SCT110 BKN200 28/23 A3012 RMK AO2 SLP197 T02830228 53005

KMDW 181505Z 08005KT 10SM FEW011 SCT025 BKN070 BKN130 OVC200 22/20 A2989 RMK AO2 LTG DSNT NE-S RAE1458 TSE1459 CB DSNT NE-E-S P0000 T02170200

KMEM 181454Z 26004KT 10SM SCT200 30/24 A2998 RMK AO2 SLP145 T03000244 53006

KMIA 181453Z 11006KT 10SM SCT032 SCT250 32/24 A3009 RMK AO2 SLP189 T03220239 53006

KMSP 181453Z 28007KT 10SM BKN016 OVC022 20/17 A2979 RMK AO2 SLP084 T02000167 53017 $

KORD 181505Z 11009KT 10SM BKN090 OVC250 21/19 A2987 RMK AO2 LTG DSNT E-S T02060189 $

KPDX 181453Z 00000KT 10SM FEW014 OVC032 17/13 A2989 RMK AO2 SLP121 T01670128 53000

KPHL 181454Z VRB03KT 10SM FEW019 SCT140 BKN280 29/24 A3002 RMK AO2 SLP164 T02940244 55001 $

KPHX 181451Z 10006KT 10SM FEW180 BKN250 31/11 A2984 RMK AO2 SLP084 T03060106 51019

KPIT 181451Z 22009KT 10SM BKN250 28/21 A3002 RMK AO2 SLP165 T02780206 53004

KSAN 181451Z 23004KT 10SM OVC019 19/14 A2994 RMK AO2 SLP137 T01940144 51015

KSEA 181453Z 00000KT 10SM FEW006 FEW025 SCT040 16/12 A2989 RMK AO2 SLP126 T01610122 56004

KSFO 181456Z 17009KT 10SM FEW011 18/12 A2985 RMK AO2 SLP107 T01830117 53011

KSLC 181454Z 13007KT 10SM CLR 23/06 A2999 RMK AO2 SLP098 T02280061 53015 $

KSTL 181451Z 25009KT 10SM FEW050 FEW080 BKN250 29/22 A2990 RMK AO2 SLP112 T02940217 51010 $

KTPA 181453Z 15004KT 10SM FEW025 SCT120 BKN160 OVC250 27/23 A3012 RMK AO2 SLP198 T02670233 53007 $